sensor_id;sensor_type;location;lat;lon;timestamp;P1;durP1;ratioP1;P2;durP2;ratioP2
5060;SDS011;2549;52.128;21.068;2023-04-24T00:01:23;8.23;;;5.17;;
5060;SDS011;2549;52.128;21.068;2023-04-24T00:03:50;12.73;;;6.00;;
5060;SDS011;2549;52.128;21.068;2023-04-24T00:06:17;8.10;;;5.30;;
5060;SDS011;2549;52.128;21.068;2023-04-24T00:08:44;7.43;;;6.20;;
5060;SDS011;2549;52.128;21.068;2023-04-24T00:11:11;8.90;;;5.00;;
5060;SDS011;2549;52.128;21.068;2023-04-24T00:13:38;7.13;;;6.10;;
5060;SDS011;2549;52.128;21.068;2023-04-24T00:16:06;7.50;;;5.70;;
5060;SDS011;2549;52.128;21.068;2023-04-24T00:18:32;10.30;;;5.60;;
5060;SDS011;2549;52.128;21.068;2023-04-24T00:20:59;8.47;;;5.60;;
5060;SDS011;2549;52.128;21.068;2023-04-24T00:23:26;8.00;;;5.67;;
5060;SDS011;2549;52.128;21.068;2023-04-24T00:25:53;13.60;;;6.30;;
5060;SDS011;2549;52.128;21.068;2023-04-24T00:28:23;10.73;;;5.80;;
5060;SDS011;2549;52.128;21.068;2023-04-24T00:30:52;9.00;;;6.10;;
5060;SDS011;2549;52.128;21.068;2023-04-24T00:33:19;9.70;;;6.00;;
5060;SDS011;2549;52.128;21.068;2023-04-24T00:35:46;8.10;;;5.73;;
5060;SDS011;2549;52.128;21.068;2023-04-24T00:38:13;8.43;;;5.97;;
5060;SDS011;2549;52.128;21.068;2023-04-24T00:40:40;8.63;;;6.13;;
5060;SDS011;2549;52.128;21.068;2023-04-24T00:43:07;9.97;;;5.30;;
5060;SDS011;2549;52.128;21.068;2023-04-24T00:45:35;8.77;;;5.57;;
5060;SDS011;2549;52.128;21.068;2023-04-24T00:48:02;7.00;;;5.43;;
5060;SDS011;2549;52.128;21.068;2023-04-24T00:50:30;10.03;;;6.13;;
5060;SDS011;2549;52.128;21.068;2023-04-24T00:52:59;6.80;;;5.23;;
5060;SDS011;2549;52.128;21.068;2023-04-24T00:55:26;14.00;;;6.30;;
5060;SDS011;2549;52.128;21.068;2023-04-24T00:57:53;8.53;;;5.70;;
5060;SDS011;2549;52.128;21.068;2023-04-24T01:00:20;10.07;;;6.40;;
5060;SDS011;2549;52.128;21.068;2023-04-24T01:02:47;10.47;;;6.90;;
5060;SDS011;2549;52.128;21.068;2023-04-24T01:05:16;6.30;;;5.30;;
5060;SDS011;2549;52.128;21.068;2023-04-24T01:07:43;13.67;;;6.63;;
5060;SDS011;2549;52.128;21.068;2023-04-24T01:10:12;7.40;;;5.70;;
5060;SDS011;2549;52.128;21.068;2023-04-24T01:12:40;10.10;;;6.07;;
5060;SDS011;2549;52.128;21.068;2023-04-24T01:15:07;18.27;;;6.97;;
5060;SDS011;2549;52.128;21.068;2023-04-24T01:17:35;11.80;;;6.30;;
5060;SDS011;2549;52.128;21.068;2023-04-24T01:20:02;7.93;;;5.80;;
5060;SDS011;2549;52.128;21.068;2023-04-24T01:22:34;11.40;;;6.00;;
5060;SDS011;2549;52.128;21.068;2023-04-24T01:25:02;11.10;;;6.13;;
5060;SDS011;2549;52.128;21.068;2023-04-24T01:27:29;7.20;;;5.70;;
5060;SDS011;2549;52.128;21.068;2023-04-24T01:29:56;8.97;;;6.30;;
5060;SDS011;2549;52.128;21.068;2023-04-24T01:32:23;8.10;;;6.10;;
5060;SDS011;2549;52.128;21.068;2023-04-24T01:34:51;11.07;;;5.40;;
5060;SDS011;2549;52.128;21.068;2023-04-24T01:37:18;11.93;;;6.00;;
5060;SDS011;2549;52.128;21.068;2023-04-24T01:39:45;9.07;;;6.37;;
5060;SDS011;2549;52.128;21.068;2023-04-24T01:42:12;9.13;;;6.43;;
5060;SDS011;2549;52.128;21.068;2023-04-24T01:44:39;10.80;;;7.07;;
5060;SDS011;2549;52.128;21.068;2023-04-24T01:47:06;11.20;;;6.13;;
5060;SDS011;2549;52.128;21.068;2023-04-24T01:49:34;9.47;;;5.93;;
5060;SDS011;2549;52.128;21.068;2023-04-24T01:52:01;8.40;;;6.20;;
5060;SDS011;2549;52.128;21.068;2023-04-24T01:54:27;10.70;;;6.43;;
5060;SDS011;2549;52.128;21.068;2023-04-24T01:56:54;8.80;;;6.33;;
5060;SDS011;2549;52.128;21.068;2023-04-24T01:59:21;10.57;;;5.77;;
5060;SDS011;2549;52.128;21.068;2023-04-24T02:01:51;15.73;;;6.10;;
5060;SDS011;2549;52.128;21.068;2023-04-24T02:04:18;7.50;;;6.10;;
5060;SDS011;2549;52.128;21.068;2023-04-24T02:06:45;11.60;;;6.77;;
5060;SDS011;2549;52.128;21.068;2023-04-24T02:09:12;8.50;;;5.10;;
5060;SDS011;2549;52.128;21.068;2023-04-24T02:11:38;11.93;;;5.73;;
5060;SDS011;2549;52.128;21.068;2023-04-24T02:14:05;8.90;;;6.10;;
5060;SDS011;2549;52.128;21.068;2023-04-24T02:16:32;8.00;;;5.93;;
5060;SDS011;2549;52.128;21.068;2023-04-24T02:19:00;8.90;;;6.73;;
5060;SDS011;2549;52.128;21.068;2023-04-24T02:21:26;11.97;;;6.57;;
5060;SDS011;2549;52.128;21.068;2023-04-24T02:23:54;11.20;;;7.40;;
5060;SDS011;2549;52.128;21.068;2023-04-24T02:26:21;9.97;;;6.60;;
5060;SDS011;2549;52.128;21.068;2023-04-24T02:28:47;9.27;;;6.77;;
5060;SDS011;2549;52.128;21.068;2023-04-24T02:31:14;6.80;;;5.80;;
5060;SDS011;2549;52.128;21.068;2023-04-24T02:33:41;10.77;;;7.03;;
5060;SDS011;2549;52.128;21.068;2023-04-24T02:36:08;10.43;;;6.27;;
5060;SDS011;2549;52.128;21.068;2023-04-24T02:38:35;12.00;;;6.90;;
5060;SDS011;2549;52.128;21.068;2023-04-24T02:41:02;11.67;;;7.97;;
5060;SDS011;2549;52.128;21.068;2023-04-24T02:43:32;8.87;;;5.97;;
5060;SDS011;2549;52.128;21.068;2023-04-24T02:45:59;9.43;;;6.60;;
5060;SDS011;2549;52.128;21.068;2023-04-24T02:48:26;7.60;;;6.03;;
5060;SDS011;2549;52.128;21.068;2023-04-24T02:50:53;9.20;;;6.53;;
5060;SDS011;2549;52.128;21.068;2023-04-24T02:53:20;8.47;;;7.10;;
5060;SDS011;2549;52.128;21.068;2023-04-24T02:55:47;12.70;;;6.63;;
5060;SDS011;2549;52.128;21.068;2023-04-24T02:58:14;9.53;;;6.97;;
5060;SDS011;2549;52.128;21.068;2023-04-24T03:00:42;15.00;;;6.20;;
5060;SDS011;2549;52.128;21.068;2023-04-24T03:03:09;12.33;;;6.53;;
5060;SDS011;2549;52.128;21.068;2023-04-24T03:05:36;8.77;;;6.80;;
5060;SDS011;2549;52.128;21.068;2023-04-24T03:08:03;9.77;;;6.57;;
5060;SDS011;2549;52.128;21.068;2023-04-24T03:10:31;8.30;;;6.83;;
5060;SDS011;2549;52.128;21.068;2023-04-24T03:12:58;10.30;;;6.07;;
5060;SDS011;2549;52.128;21.068;2023-04-24T03:15:25;8.53;;;6.40;;
5060;SDS011;2549;52.128;21.068;2023-04-24T03:17:52;9.00;;;6.03;;
5060;SDS011;2549;52.128;21.068;2023-04-24T03:20:22;8.70;;;6.50;;
5060;SDS011;2549;52.128;21.068;2023-04-24T03:22:51;9.27;;;6.37;;
5060;SDS011;2549;52.128;21.068;2023-04-24T03:25:18;13.87;;;6.13;;
5060;SDS011;2549;52.128;21.068;2023-04-24T03:27:45;9.07;;;6.87;;
5060;SDS011;2549;52.128;21.068;2023-04-24T03:30:12;10.17;;;7.10;;
5060;SDS011;2549;52.128;21.068;2023-04-24T03:32:39;9.87;;;7.70;;
5060;SDS011;2549;52.128;21.068;2023-04-24T03:35:06;10.30;;;7.03;;
5060;SDS011;2549;52.128;21.068;2023-04-24T03:37:34;8.93;;;6.63;;
5060;SDS011;2549;52.128;21.068;2023-04-24T03:40:01;14.27;;;7.97;;
5060;SDS011;2549;52.128;21.068;2023-04-24T03:42:29;10.77;;;7.63;;
5060;SDS011;2549;52.128;21.068;2023-04-24T03:44:55;10.63;;;7.30;;
5060;SDS011;2549;52.128;21.068;2023-04-24T03:47:22;10.43;;;6.80;;
5060;SDS011;2549;52.128;21.068;2023-04-24T03:49:49;12.87;;;7.97;;
5060;SDS011;2549;52.128;21.068;2023-04-24T03:52:16;12.30;;;7.50;;
5060;SDS011;2549;52.128;21.068;2023-04-24T03:54:43;11.23;;;7.67;;
5060;SDS011;2549;52.128;21.068;2023-04-24T03:57:10;10.30;;;7.40;;
5060;SDS011;2549;52.128;21.068;2023-04-24T03:59:37;10.53;;;7.30;;
5060;SDS011;2549;52.128;21.068;2023-04-24T04:02:04;11.17;;;7.57;;
5060;SDS011;2549;52.128;21.068;2023-04-24T04:04:31;12.10;;;7.13;;
5060;SDS011;2549;52.128;21.068;2023-04-24T04:06:58;8.90;;;6.70;;
5060;SDS011;2549;52.128;21.068;2023-04-24T04:09:29;9.10;;;5.30;;
5060;SDS011;2549;52.128;21.068;2023-04-24T04:11:55;11.13;;;6.60;;
5060;SDS011;2549;52.128;21.068;2023-04-24T04:14:22;8.43;;;6.60;;
5060;SDS011;2549;52.128;21.068;2023-04-24T04:16:49;10.23;;;6.77;;
5060;SDS011;2549;52.128;21.068;2023-04-24T04:19:20;10.30;;;6.30;;
5060;SDS011;2549;52.128;21.068;2023-04-24T04:21:47;11.53;;;7.30;;
5060;SDS011;2549;52.128;21.068;2023-04-24T04:24:18;10.27;;;6.83;;
5060;SDS011;2549;52.128;21.068;2023-04-24T04:26:46;8.10;;;5.93;;
5060;SDS011;2549;52.128;21.068;2023-04-24T04:29:13;8.17;;;6.53;;
5060;SDS011;2549;52.128;21.068;2023-04-24T04:31:44;10.10;;;6.37;;
5060;SDS011;2549;52.128;21.068;2023-04-24T04:34:11;10.37;;;7.57;;
5060;SDS011;2549;52.128;21.068;2023-04-24T04:36:38;9.67;;;7.57;;
5060;SDS011;2549;52.128;21.068;2023-04-24T04:39:07;9.70;;;6.60;;
5060;SDS011;2549;52.128;21.068;2023-04-24T04:41:34;16.20;;;6.97;;
5060;SDS011;2549;52.128;21.068;2023-04-24T04:44:01;11.37;;;7.47;;
5060;SDS011;2549;52.128;21.068;2023-04-24T04:46:30;12.13;;;6.23;;
5060;SDS011;2549;52.128;21.068;2023-04-24T04:49:00;7.50;;;6.17;;
5060;SDS011;2549;52.128;21.068;2023-04-24T04:51:27;8.70;;;6.97;;
5060;SDS011;2549;52.128;21.068;2023-04-24T04:53:54;8.93;;;7.03;;
5060;SDS011;2549;52.128;21.068;2023-04-24T04:56:21;8.70;;;6.23;;
5060;SDS011;2549;52.128;21.068;2023-04-24T04:58:48;9.63;;;6.10;;
5060;SDS011;2549;52.128;21.068;2023-04-24T05:01:15;8.73;;;6.67;;
5060;SDS011;2549;52.128;21.068;2023-04-24T05:03:42;9.27;;;6.50;;
5060;SDS011;2549;52.128;21.068;2023-04-24T05:06:09;10.50;;;6.93;;
5060;SDS011;2549;52.128;21.068;2023-04-24T05:08:36;9.07;;;5.87;;
5060;SDS011;2549;52.128;21.068;2023-04-24T05:11:03;10.67;;;6.77;;
5060;SDS011;2549;52.128;21.068;2023-04-24T05:13:29;11.33;;;6.60;;
5060;SDS011;2549;52.128;21.068;2023-04-24T05:16:05;15.13;;;6.60;;
5060;SDS011;2549;52.128;21.068;2023-04-24T05:18:32;9.47;;;6.53;;
5060;SDS011;2549;52.128;21.068;2023-04-24T05:20:59;11.73;;;6.67;;
5060;SDS011;2549;52.128;21.068;2023-04-24T05:23:27;9.83;;;6.23;;
5060;SDS011;2549;52.128;21.068;2023-04-24T05:25:54;10.43;;;6.93;;
5060;SDS011;2549;52.128;21.068;2023-04-24T05:28:21;17.50;;;6.50;;
5060;SDS011;2549;52.128;21.068;2023-04-24T05:30:48;11.00;;;6.30;;
5060;SDS011;2549;52.128;21.068;2023-04-24T05:33:15;9.53;;;6.23;;
5060;SDS011;2549;52.128;21.068;2023-04-24T05:35:41;13.97;;;6.70;;
5060;SDS011;2549;52.128;21.068;2023-04-24T05:38:13;13.70;;;6.10;;
5060;SDS011;2549;52.128;21.068;2023-04-24T05:40:40;12.17;;;7.00;;
5060;SDS011;2549;52.128;21.068;2023-04-24T05:43:07;14.20;;;7.13;;
5060;SDS011;2549;52.128;21.068;2023-04-24T05:45:34;15.20;;;6.63;;
5060;SDS011;2549;52.128;21.068;2023-04-24T05:48:02;9.80;;;7.30;;
5060;SDS011;2549;52.128;21.068;2023-04-24T05:50:29;16.63;;;7.10;;
5060;SDS011;2549;52.128;21.068;2023-04-24T05:52:56;7.80;;;6.50;;
5060;SDS011;2549;52.128;21.068;2023-04-24T05:55:28;13.13;;;6.97;;
5060;SDS011;2549;52.128;21.068;2023-04-24T05:57:55;13.67;;;7.30;;
5060;SDS011;2549;52.128;21.068;2023-04-24T06:00:22;21.30;;;7.20;;
5060;SDS011;2549;52.128;21.068;2023-04-24T06:02:49;11.70;;;7.50;;
5060;SDS011;2549;52.128;21.068;2023-04-24T06:05:19;13.07;;;8.57;;
5060;SDS011;2549;52.128;21.068;2023-04-24T06:07:46;14.40;;;7.00;;
5060;SDS011;2549;52.128;21.068;2023-04-24T06:10:13;9.67;;;6.70;;
5060;SDS011;2549;52.128;21.068;2023-04-24T06:12:40;14.47;;;7.87;;
5060;SDS011;2549;52.128;21.068;2023-04-24T06:15:07;9.93;;;6.60;;
5060;SDS011;2549;52.128;21.068;2023-04-24T06:17:34;15.63;;;6.87;;
5060;SDS011;2549;52.128;21.068;2023-04-24T06:20:01;10.33;;;6.70;;
5060;SDS011;2549;52.128;21.068;2023-04-24T06:22:31;22.33;;;7.53;;
5060;SDS011;2549;52.128;21.068;2023-04-24T06:24:58;14.63;;;8.50;;
5060;SDS011;2549;52.128;21.068;2023-04-24T06:27:25;13.77;;;7.13;;
5060;SDS011;2549;52.128;21.068;2023-04-24T06:29:53;9.17;;;6.50;;
5060;SDS011;2549;52.128;21.068;2023-04-24T06:32:22;9.20;;;7.20;;
5060;SDS011;2549;52.128;21.068;2023-04-24T06:34:53;9.30;;;6.40;;
5060;SDS011;2549;52.128;21.068;2023-04-24T06:37:20;13.00;;;7.27;;
5060;SDS011;2549;52.128;21.068;2023-04-24T06:39:47;10.80;;;6.60;;
5060;SDS011;2549;52.128;21.068;2023-04-24T06:42:14;7.57;;;6.20;;
5060;SDS011;2549;52.128;21.068;2023-04-24T06:44:41;9.87;;;6.63;;
5060;SDS011;2549;52.128;21.068;2023-04-24T06:47:08;15.30;;;7.33;;
5060;SDS011;2549;52.128;21.068;2023-04-24T06:49:39;11.20;;;6.97;;
5060;SDS011;2549;52.128;21.068;2023-04-24T06:52:07;12.73;;;7.00;;
5060;SDS011;2549;52.128;21.068;2023-04-24T07:05:34;12.07;;;6.47;;
5060;SDS011;2549;52.128;21.068;2023-04-24T07:08:01;11.10;;;7.80;;
5060;SDS011;2549;52.128;21.068;2023-04-24T07:10:29;13.63;;;7.37;;
5060;SDS011;2549;52.128;21.068;2023-04-24T07:12:56;9.23;;;7.27;;
5060;SDS011;2549;52.128;21.068;2023-04-24T07:15:23;16.83;;;6.80;;
5060;SDS011;2549;52.128;21.068;2023-04-24T07:17:50;6.20;;;5.60;;
5060;SDS011;2549;52.128;21.068;2023-04-24T07:20:16;11.53;;;6.00;;
5060;SDS011;2549;52.128;21.068;2023-04-24T07:22:43;14.83;;;6.80;;
5060;SDS011;2549;52.128;21.068;2023-04-24T07:25:10;9.77;;;6.33;;
5060;SDS011;2549;52.128;21.068;2023-04-24T07:27:37;13.30;;;6.40;;
5060;SDS011;2549;52.128;21.068;2023-04-24T07:30:04;19.63;;;6.40;;
5060;SDS011;2549;52.128;21.068;2023-04-24T07:32:33;8.27;;;6.03;;
5060;SDS011;2549;52.128;21.068;2023-04-24T07:35:01;19.80;;;7.50;;
5060;SDS011;2549;52.128;21.068;2023-04-24T07:37:28;10.57;;;6.20;;
5060;SDS011;2549;52.128;21.068;2023-04-24T07:39:55;10.47;;;5.70;;
5060;SDS011;2549;52.128;21.068;2023-04-24T07:42:22;14.30;;;6.87;;
5060;SDS011;2549;52.128;21.068;2023-04-24T07:44:49;11.50;;;6.87;;
5060;SDS011;2549;52.128;21.068;2023-04-24T07:47:17;10.00;;;6.00;;
5060;SDS011;2549;52.128;21.068;2023-04-24T07:49:43;8.40;;;6.07;;
5060;SDS011;2549;52.128;21.068;2023-04-24T07:52:11;8.60;;;5.83;;
5060;SDS011;2549;52.128;21.068;2023-04-24T07:54:38;6.40;;;5.73;;
5060;SDS011;2549;52.128;21.068;2023-04-24T07:57:05;12.53;;;5.93;;
5060;SDS011;2549;52.128;21.068;2023-04-24T07:59:34;11.20;;;6.10;;
5060;SDS011;2549;52.128;21.068;2023-04-24T08:02:01;7.13;;;5.77;;
5060;SDS011;2549;52.128;21.068;2023-04-24T08:04:28;8.60;;;5.27;;
5060;SDS011;2549;52.128;21.068;2023-04-24T08:06:55;7.50;;;5.33;;
5060;SDS011;2549;52.128;21.068;2023-04-24T08:09:22;12.33;;;5.80;;
5060;SDS011;2549;52.128;21.068;2023-04-24T08:11:51;7.60;;;5.40;;
5060;SDS011;2549;52.128;21.068;2023-04-24T08:14:21;7.60;;;5.53;;
5060;SDS011;2549;52.128;21.068;2023-04-24T08:16:48;7.83;;;5.70;;
5060;SDS011;2549;52.128;21.068;2023-04-24T08:19:15;8.80;;;5.40;;
5060;SDS011;2549;52.128;21.068;2023-04-24T08:21:42;8.53;;;5.20;;
5060;SDS011;2549;52.128;21.068;2023-04-24T08:24:09;7.00;;;5.53;;
5060;SDS011;2549;52.128;21.068;2023-04-24T08:26:36;17.47;;;5.33;;
5060;SDS011;2549;52.128;21.068;2023-04-24T08:29:03;8.27;;;4.93;;
5060;SDS011;2549;52.128;21.068;2023-04-24T08:31:32;7.90;;;5.70;;
5060;SDS011;2549;52.128;21.068;2023-04-24T08:33:59;9.63;;;4.87;;
5060;SDS011;2549;52.128;21.068;2023-04-24T08:36:27;8.97;;;5.90;;
5060;SDS011;2549;52.128;21.068;2023-04-24T08:39:12;6.90;;;5.40;;
5060;SDS011;2549;52.128;21.068;2023-04-24T08:41:39;8.43;;;5.70;;
5060;SDS011;2549;52.128;21.068;2023-04-24T08:44:09;5.43;;;4.93;;
5060;SDS011;2549;52.128;21.068;2023-04-24T08:46:37;8.20;;;4.67;;
5060;SDS011;2549;52.128;21.068;2023-04-24T08:49:05;10.40;;;5.57;;
5060;SDS011;2549;52.128;21.068;2023-04-24T08:51:32;10.60;;;5.63;;
5060;SDS011;2549;52.128;21.068;2023-04-24T08:53:59;7.93;;;4.77;;
5060;SDS011;2549;52.128;21.068;2023-04-24T08:56:28;6.73;;;4.20;;
5060;SDS011;2549;52.128;21.068;2023-04-24T08:58:57;5.17;;;4.67;;
5060;SDS011;2549;52.128;21.068;2023-04-24T09:01:24;8.03;;;5.37;;
5060;SDS011;2549;52.128;21.068;2023-04-24T09:03:52;6.93;;;5.03;;
5060;SDS011;2549;52.128;21.068;2023-04-24T09:06:21;6.10;;;5.07;;
5060;SDS011;2549;52.128;21.068;2023-04-24T09:08:49;12.83;;;6.23;;
5060;SDS011;2549;52.128;21.068;2023-04-24T09:11:18;8.20;;;5.23;;
5060;SDS011;2549;52.128;21.068;2023-04-24T09:13:45;6.90;;;4.93;;
5060;SDS011;2549;52.128;21.068;2023-04-24T09:16:14;11.80;;;6.20;;
5060;SDS011;2549;52.128;21.068;2023-04-24T09:18:41;8.20;;;5.00;;
5060;SDS011;2549;52.128;21.068;2023-04-24T09:21:08;6.73;;;4.50;;
5060;SDS011;2549;52.128;21.068;2023-04-24T09:23:36;13.57;;;5.10;;
5060;SDS011;2549;52.128;21.068;2023-04-24T09:26:03;6.77;;;4.70;;
5060;SDS011;2549;52.128;21.068;2023-04-24T09:28:40;9.10;;;4.83;;
5060;SDS011;2549;52.128;21.068;2023-04-24T09:31:08;12.63;;;5.40;;
5060;SDS011;2549;52.128;21.068;2023-04-24T09:33:51;7.27;;;5.13;;
5060;SDS011;2549;52.128;21.068;2023-04-24T09:36:27;9.37;;;5.50;;
5060;SDS011;2549;52.128;21.068;2023-04-24T09:38:59;11.10;;;6.33;;
5060;SDS011;2549;52.128;21.068;2023-04-24T09:41:27;8.37;;;4.50;;
5060;SDS011;2549;52.128;21.068;2023-04-24T09:43:57;11.00;;;5.27;;
5060;SDS011;2549;52.128;21.068;2023-04-24T09:46:37;7.00;;;5.93;;
5060;SDS011;2549;52.128;21.068;2023-04-24T09:49:08;10.03;;;5.80;;
5060;SDS011;2549;52.128;21.068;2023-04-24T09:51:40;5.53;;;5.03;;
5060;SDS011;2549;52.128;21.068;2023-04-24T09:54:20;8.13;;;6.00;;
5060;SDS011;2549;52.128;21.068;2023-04-24T09:56:48;7.60;;;5.50;;
5060;SDS011;2549;52.128;21.068;2023-04-24T09:59:17;7.50;;;5.87;;
5060;SDS011;2549;52.128;21.068;2023-04-24T10:01:45;8.13;;;5.50;;
5060;SDS011;2549;52.128;21.068;2023-04-24T10:04:22;10.80;;;6.40;;
5060;SDS011;2549;52.128;21.068;2023-04-24T10:06:51;9.57;;;5.23;;
5060;SDS011;2549;52.128;21.068;2023-04-24T10:09:19;12.53;;;6.07;;
5060;SDS011;2549;52.128;21.068;2023-04-24T10:11:49;16.30;;;5.20;;
5060;SDS011;2549;52.128;21.068;2023-04-24T10:14:18;5.37;;;4.87;;
5060;SDS011;2549;52.128;21.068;2023-04-24T10:16:47;8.50;;;5.80;;
5060;SDS011;2549;52.128;21.068;2023-04-24T10:19:15;7.50;;;4.80;;
5060;SDS011;2549;52.128;21.068;2023-04-24T10:21:42;10.40;;;5.50;;
5060;SDS011;2549;52.128;21.068;2023-04-24T10:24:13;18.37;;;5.50;;
5060;SDS011;2549;52.128;21.068;2023-04-24T10:26:42;10.87;;;4.93;;
5060;SDS011;2549;52.128;21.068;2023-04-24T10:29:13;13.23;;;6.00;;
5060;SDS011;2549;52.128;21.068;2023-04-24T10:31:41;6.37;;;5.27;;
5060;SDS011;2549;52.128;21.068;2023-04-24T10:34:12;6.83;;;4.50;;
5060;SDS011;2549;52.128;21.068;2023-04-24T10:36:50;7.90;;;4.70;;
5060;SDS011;2549;52.128;21.068;2023-04-24T10:39:22;16.30;;;5.40;;
5060;SDS011;2549;52.128;21.068;2023-04-24T10:41:54;14.03;;;5.60;;
5060;SDS011;2549;52.128;21.068;2023-04-24T10:44:23;17.93;;;6.40;;
5060;SDS011;2549;52.128;21.068;2023-04-24T10:46:54;15.40;;;5.43;;
5060;SDS011;2549;52.128;21.068;2023-04-24T10:49:29;10.30;;;5.07;;
5060;SDS011;2549;52.128;21.068;2023-04-24T10:52:02;7.43;;;4.80;;
5060;SDS011;2549;52.128;21.068;2023-04-24T10:54:35;6.17;;;4.10;;
5060;SDS011;2549;52.128;21.068;2023-04-24T10:59:47;9.27;;;4.57;;
5060;SDS011;2549;52.128;21.068;2023-04-24T11:02:17;4.73;;;4.10;;
5060;SDS011;2549;52.128;21.068;2023-04-24T11:04:44;9.70;;;4.83;;
5060;SDS011;2549;52.128;21.068;2023-04-24T11:07:12;7.97;;;4.20;;
5060;SDS011;2549;52.128;21.068;2023-04-24T11:09:39;5.23;;;4.07;;
5060;SDS011;2549;52.128;21.068;2023-04-24T11:12:10;4.93;;;4.23;;
5060;SDS011;2549;52.128;21.068;2023-04-24T11:15:21;7.17;;;4.77;;
5060;SDS011;2549;52.128;21.068;2023-04-24T11:20:02;7.27;;;4.03;;
5060;SDS011;2549;52.128;21.068;2023-04-24T11:22:50;6.07;;;4.00;;
5060;SDS011;2549;52.128;21.068;2023-04-24T11:25:21;4.73;;;4.07;;
5060;SDS011;2549;52.128;21.068;2023-04-24T11:27:48;5.43;;;4.60;;
5060;SDS011;2549;52.128;21.068;2023-04-24T11:30:17;4.97;;;3.97;;
5060;SDS011;2549;52.128;21.068;2023-04-24T11:32:50;5.77;;;4.50;;
5060;SDS011;2549;52.128;21.068;2023-04-24T11:35:18;8.10;;;4.77;;
5060;SDS011;2549;52.128;21.068;2023-04-24T11:37:54;25.87;;;5.00;;
5060;SDS011;2549;52.128;21.068;2023-04-24T11:40:24;4.53;;;4.13;;
5060;SDS011;2549;52.128;21.068;2023-04-24T11:42:52;6.47;;;4.60;;
5060;SDS011;2549;52.128;21.068;2023-04-24T11:45:23;9.10;;;4.27;;
5060;SDS011;2549;52.128;21.068;2023-04-24T11:47:53;6.97;;;4.80;;
5060;SDS011;2549;52.128;21.068;2023-04-24T11:50:24;5.63;;;4.27;;
5060;SDS011;2549;52.128;21.068;2023-04-24T11:52:54;6.50;;;3.90;;
5060;SDS011;2549;52.128;21.068;2023-04-24T11:57:50;6.83;;;4.50;;
5060;SDS011;2549;52.128;21.068;2023-04-24T12:00:20;8.33;;;4.37;;
5060;SDS011;2549;52.128;21.068;2023-04-24T12:02:51;9.23;;;5.07;;
5060;SDS011;2549;52.128;21.068;2023-04-24T12:05:22;7.47;;;4.80;;
5060;SDS011;2549;52.128;21.068;2023-04-24T12:07:51;8.47;;;5.03;;
5060;SDS011;2549;52.128;21.068;2023-04-24T12:10:22;5.30;;;4.77;;
5060;SDS011;2549;52.128;21.068;2023-04-24T12:12:50;5.03;;;4.53;;
5060;SDS011;2549;52.128;21.068;2023-04-24T12:15:18;6.07;;;4.10;;
5060;SDS011;2549;52.128;21.068;2023-04-24T12:17:46;8.30;;;5.10;;
5060;SDS011;2549;52.128;21.068;2023-04-24T12:20:13;6.93;;;4.87;;
5060;SDS011;2549;52.128;21.068;2023-04-24T12:25:12;6.27;;;3.63;;
5060;SDS011;2549;52.128;21.068;2023-04-24T12:27:39;4.80;;;3.73;;
5060;SDS011;2549;52.128;21.068;2023-04-24T12:30:09;5.23;;;4.20;;
5060;SDS011;2549;52.128;21.068;2023-04-24T12:32:41;5.00;;;4.10;;
5060;SDS011;2549;52.128;21.068;2023-04-24T12:35:13;12.83;;;3.60;;
5060;SDS011;2549;52.128;21.068;2023-04-24T12:37:42;9.23;;;2.80;;
5060;SDS011;2549;52.128;21.068;2023-04-24T12:40:13;9.90;;;2.67;;
5060;SDS011;2549;52.128;21.068;2023-04-24T12:42:47;4.30;;;2.70;;
5060;SDS011;2549;52.128;21.068;2023-04-24T12:45:16;3.27;;;2.97;;
5060;SDS011;2549;52.128;21.068;2023-04-24T12:47:45;5.37;;;2.63;;
5060;SDS011;2549;52.128;21.068;2023-04-24T12:50:13;4.30;;;3.33;;
5060;SDS011;2549;52.128;21.068;2023-04-24T12:52:41;22.30;;;3.23;;
5060;SDS011;2549;52.128;21.068;2023-04-24T12:55:09;4.30;;;2.67;;
5060;SDS011;2549;52.128;21.068;2023-04-24T12:57:37;9.37;;;2.70;;
5060;SDS011;2549;52.128;21.068;2023-04-24T13:00:05;4.90;;;2.67;;
5060;SDS011;2549;52.128;21.068;2023-04-24T13:02:33;8.13;;;3.37;;
5060;SDS011;2549;52.128;21.068;2023-04-24T13:05:01;5.27;;;3.30;;
5060;SDS011;2549;52.128;21.068;2023-04-24T13:07:28;2.47;;;2.27;;
5060;SDS011;2549;52.128;21.068;2023-04-24T13:09:55;6.53;;;2.40;;
5060;SDS011;2549;52.128;21.068;2023-04-24T13:12:23;4.57;;;3.10;;
5060;SDS011;2549;52.128;21.068;2023-04-24T13:14:50;2.70;;;2.50;;
5060;SDS011;2549;52.128;21.068;2023-04-24T13:17:17;12.40;;;3.30;;
5060;SDS011;2549;52.128;21.068;2023-04-24T13:19:44;3.77;;;3.20;;
5060;SDS011;2549;52.128;21.068;2023-04-24T13:22:12;4.00;;;2.80;;
5060;SDS011;2549;52.128;21.068;2023-04-24T13:24:39;2.77;;;2.57;;
5060;SDS011;2549;52.128;21.068;2023-04-24T13:27:07;8.73;;;3.07;;
5060;SDS011;2549;52.128;21.068;2023-04-24T13:29:34;3.60;;;2.77;;
5060;SDS011;2549;52.128;21.068;2023-04-24T13:32:01;7.43;;;3.20;;
5060;SDS011;2549;52.128;21.068;2023-04-24T13:34:28;2.90;;;2.63;;
5060;SDS011;2549;52.128;21.068;2023-04-24T13:36:56;2.47;;;2.27;;
5060;SDS011;2549;52.128;21.068;2023-04-24T13:39:24;6.30;;;2.70;;
5060;SDS011;2549;52.128;21.068;2023-04-24T13:41:52;7.03;;;2.60;;
5060;SDS011;2549;52.128;21.068;2023-04-24T13:44:20;3.00;;;2.70;;
5060;SDS011;2549;52.128;21.068;2023-04-24T13:46:48;2.20;;;2.03;;
5060;SDS011;2549;52.128;21.068;2023-04-24T13:49:17;2.57;;;2.37;;
5060;SDS011;2549;52.128;21.068;2023-04-24T13:51:45;2.47;;;2.37;;
5060;SDS011;2549;52.128;21.068;2023-04-24T13:54:12;2.57;;;2.37;;
5060;SDS011;2549;52.128;21.068;2023-04-24T13:56:39;3.43;;;2.63;;
5060;SDS011;2549;52.128;21.068;2023-04-24T13:59:06;3.80;;;2.20;;
5060;SDS011;2549;52.128;21.068;2023-04-24T14:01:34;3.03;;;2.60;;
5060;SDS011;2549;52.128;21.068;2023-04-24T14:04:01;2.80;;;2.50;;
5060;SDS011;2549;52.128;21.068;2023-04-24T14:06:29;4.40;;;2.83;;
5060;SDS011;2549;52.128;21.068;2023-04-24T14:08:55;2.30;;;2.20;;
5060;SDS011;2549;52.128;21.068;2023-04-24T14:11:22;3.43;;;2.80;;
5060;SDS011;2549;52.128;21.068;2023-04-24T14:13:49;4.60;;;2.10;;
5060;SDS011;2549;52.128;21.068;2023-04-24T14:16:16;3.73;;;2.30;;
5060;SDS011;2549;52.128;21.068;2023-04-24T14:18:43;4.13;;;2.40;;
5060;SDS011;2549;52.128;21.068;2023-04-24T14:21:10;4.20;;;2.33;;
5060;SDS011;2549;52.128;21.068;2023-04-24T14:23:37;3.70;;;2.60;;
5060;SDS011;2549;52.128;21.068;2023-04-24T14:26:03;3.90;;;2.57;;
5060;SDS011;2549;52.128;21.068;2023-04-24T14:28:31;6.10;;;2.23;;
5060;SDS011;2549;52.128;21.068;2023-04-24T14:30:58;2.57;;;2.37;;
5060;SDS011;2549;52.128;21.068;2023-04-24T14:33:25;7.90;;;2.57;;
5060;SDS011;2549;52.128;21.068;2023-04-24T14:35:52;3.10;;;2.90;;
5060;SDS011;2549;52.128;21.068;2023-04-24T14:38:19;9.70;;;2.60;;
5060;SDS011;2549;52.128;21.068;2023-04-24T14:40:46;2.57;;;2.37;;
5060;SDS011;2549;52.128;21.068;2023-04-24T14:43:16;3.33;;;2.27;;
5060;SDS011;2549;52.128;21.068;2023-04-24T14:45:43;3.07;;;2.87;;
5060;SDS011;2549;52.128;21.068;2023-04-24T14:48:10;3.10;;;2.80;;
5060;SDS011;2549;52.128;21.068;2023-04-24T14:50:37;3.60;;;2.97;;
5060;SDS011;2549;52.128;21.068;2023-04-24T14:53:04;2.57;;;2.37;;
5060;SDS011;2549;52.128;21.068;2023-04-24T14:55:31;9.17;;;3.33;;
5060;SDS011;2549;52.128;21.068;2023-04-24T14:57:59;2.73;;;2.53;;
5060;SDS011;2549;52.128;21.068;2023-04-24T15:00:26;2.97;;;2.77;;
5060;SDS011;2549;52.128;21.068;2023-04-24T15:02:53;3.10;;;2.90;;
5060;SDS011;2549;52.128;21.068;2023-04-24T15:05:21;3.00;;;2.80;;
5060;SDS011;2549;52.128;21.068;2023-04-24T15:07:49;3.43;;;2.67;;
5060;SDS011;2549;52.128;21.068;2023-04-24T15:10:16;3.40;;;3.10;;
5060;SDS011;2549;52.128;21.068;2023-04-24T15:12:43;6.43;;;2.67;;
5060;SDS011;2549;52.128;21.068;2023-04-24T15:15:11;5.13;;;2.93;;
5060;SDS011;2549;52.128;21.068;2023-04-24T15:17:38;2.93;;;2.73;;
5060;SDS011;2549;52.128;21.068;2023-04-24T15:20:05;11.80;;;3.03;;
5060;SDS011;2549;52.128;21.068;2023-04-24T15:22:32;3.83;;;2.87;;